createdAt,value
2022-09-23T00:00:55.595Z,2
2022-09-23T00:02:38.992Z,1
2022-09-23T00:04:22.395Z,2
2022-09-23T00:06:05.799Z,1
2022-09-23T00:07:49.194Z,1
2022-09-23T00:09:32.585Z,1
2022-09-23T00:11:15.970Z,1
2022-09-23T00:14:42.505Z,1
2022-09-23T00:16:25.847Z,1
2022-09-23T00:18:09.236Z,1
2022-09-23T00:19:52.632Z,1
2022-09-23T00:21:36.062Z,2
2022-09-23T00:23:19.936Z,1
2022-09-23T00:25:02.829Z,1
2022-09-23T00:26:46.250Z,1
2022-09-23T00:31:55.462Z,1
2022-09-23T00:33:38.887Z,1
2022-09-23T00:35:22.243Z,1
2022-09-23T00:37:05.661Z,1
2022-09-23T00:38:49.065Z,1
2022-09-23T00:40:32.482Z,1
2022-09-23T00:42:15.835Z,1
2022-09-23T00:43:59.248Z,1
2022-09-23T00:49:08.472Z,2
2022-09-23T00:50:51.878Z,2
2022-09-23T00:52:35.293Z,1
2022-09-23T00:54:18.654Z,1
2022-09-23T00:56:02.061Z,1
2022-09-23T00:57:45.470Z,1
2022-09-23T00:59:28.889Z,1
2022-09-23T01:01:12.235Z,1
2022-09-23T01:02:55.697Z,0
2022-09-23T01:06:22.147Z,1
2022-09-23T01:08:05.602Z,1
2022-09-23T01:09:48.932Z,1
2022-09-23T01:11:32.304Z,1
2022-09-23T01:13:15.696Z,1
2022-09-23T01:14:59.088Z,1
2022-09-23T01:16:42.529Z,1
2022-09-23T01:18:25.877Z,1
2022-09-23T01:20:09.291Z,1
2022-09-23T01:23:35.753Z,2
2022-09-23T01:25:19.188Z,1
2022-09-23T01:27:02.552Z,1
2022-09-23T01:28:45.995Z,1
2022-09-23T01:30:29.344Z,1
2022-09-23T01:32:12.763Z,1
2022-09-23T01:33:56.235Z,1
2022-09-23T01:35:39.532Z,1
2022-09-23T01:37:22.933Z,1
2022-09-23T01:40:49.439Z,1
2022-09-23T01:42:32.811Z,1
2022-09-23T01:44:16.181Z,1
2022-09-23T01:45:59.645Z,1
2022-09-23T01:47:42.985Z,1
2022-09-23T01:49:26.372Z,1
2022-09-23T01:51:09.776Z,2
2022-09-23T01:52:53.164Z,2
2022-09-23T01:58:02.430Z,1
2022-09-23T01:59:45.801Z,1
2022-09-23T02:01:29.281Z,1
2022-09-23T02:03:12.590Z,1
2022-09-23T02:04:56.011Z,1
2022-09-23T02:06:39.387Z,1
2022-09-23T02:08:22.791Z,1
2022-09-23T02:10:06.254Z,1
2022-09-23T02:11:49.603Z,1
2022-09-23T02:15:16.043Z,2
2022-09-23T02:16:59.453Z,1
2022-09-23T02:18:42.828Z,1
2022-09-23T02:20:26.258Z,1
2022-09-23T02:22:09.646Z,1
2022-09-23T02:23:53.121Z,0
2022-09-23T02:25:36.441Z,1
2022-09-23T02:27:19.903Z,1
2022-09-23T02:29:03.214Z,1
2022-09-23T02:32:29.709Z,1
2022-09-23T02:34:13.083Z,1
2022-09-23T02:35:56.479Z,1
2022-09-23T02:37:39.867Z,1
2022-09-23T02:39:23.264Z,1
2022-09-23T02:41:06.662Z,1
2022-09-23T02:42:50.060Z,1
2022-09-23T02:44:33.503Z,0
2022-09-23T02:49:42.703Z,1
2022-09-23T02:51:26.106Z,1
2022-09-23T02:53:09.595Z,2
2022-09-23T02:54:52.963Z,1
2022-09-23T02:56:36.291Z,1
2022-09-23T02:58:19.704Z,1
2022-09-23T03:00:03.086Z,1
2022-09-23T03:01:46.480Z,1
2022-09-23T03:03:29.866Z,1
2022-09-23T03:05:13.575Z,1
2022-09-23T03:06:56.973Z,1
2022-09-23T03:08:40.386Z,1
2022-09-23T03:10:23.802Z,1
2022-09-23T03:12:07.170Z,0
2022-09-23T03:13:50.619Z,1
2022-09-23T03:15:33.964Z,1
2022-09-23T03:17:17.375Z,1
2022-09-23T03:19:00.742Z,1
2022-09-23T03:22:27.229Z,1
2022-09-23T03:24:10.652Z,1
2022-09-23T03:25:54.003Z,2
2022-09-23T03:27:37.408Z,1
2022-09-23T03:29:20.806Z,3
2022-09-23T03:31:04.198Z,1
2022-09-23T03:32:47.649Z,1
2022-09-23T03:34:31.023Z,1
2022-09-23T03:36:14.473Z,1
2022-09-23T03:37:58.087Z,1
2022-09-23T03:39:41.538Z,1
2022-09-23T03:41:24.899Z,1
2022-09-23T03:43:08.322Z,1
2022-09-23T03:44:51.661Z,1
2022-09-23T03:46:35.059Z,1
2022-09-23T03:48:18.462Z,1
2022-09-23T03:50:01.868Z,1
2022-09-23T03:55:11.101Z,1
2022-09-23T03:56:54.541Z,1
2022-09-23T03:58:37.886Z,1
2022-09-23T04:00:21.296Z,1
2022-09-23T04:02:04.681Z,1
2022-09-23T04:03:48.076Z,0
2022-09-23T04:05:31.554Z,0
2022-09-23T04:07:14.903Z,2
2022-09-23T04:08:58.277Z,2
2022-09-23T04:10:41.974Z,1
2022-09-23T04:12:25.367Z,0
2022-09-23T04:14:08.767Z,1
2022-09-23T04:15:52.197Z,1
2022-09-23T04:17:35.604Z,1
2022-09-23T04:19:18.989Z,2
2022-09-23T04:21:02.344Z,1
2022-09-23T04:22:45.737Z,1
2022-09-23T04:27:54.989Z,1
2022-09-23T04:29:38.398Z,1
2022-09-23T04:31:21.779Z,1
2022-09-23T04:33:05.178Z,1
2022-09-23T04:34:48.568Z,1
2022-09-23T04:36:31.984Z,1
2022-09-23T04:38:15.363Z,1
2022-09-23T04:39:58.763Z,1
2022-09-23T04:45:08.005Z,1
2022-09-23T04:46:51.400Z,1
2022-09-23T04:48:34.795Z,2
2022-09-23T04:50:18.184Z,1
2022-09-23T04:52:01.573Z,2
2022-09-23T04:53:44.984Z,1
2022-09-23T04:55:28.376Z,1
2022-09-23T04:57:11.760Z,2
2022-09-23T05:02:21.006Z,3
2022-09-23T05:04:04.410Z,2
2022-09-23T05:05:47.790Z,3
2022-09-23T05:07:31.200Z,3
2022-09-23T05:09:14.624Z,3
2022-09-23T05:10:57.982Z,3
2022-09-23T05:12:41.386Z,4
2022-09-23T05:14:24.786Z,3
2022-09-23T05:17:51.260Z,4
2022-09-23T05:19:34.642Z,4
2022-09-23T05:21:18.041Z,5
2022-09-23T05:23:01.446Z,7
2022-09-23T05:24:44.836Z,8
2022-09-23T05:26:28.236Z,9
2022-09-23T05:28:11.638Z,10
2022-09-23T05:29:55.027Z,10
2022-09-23T05:35:04.278Z,12
2022-09-23T05:36:47.708Z,13
2022-09-23T05:38:31.050Z,13
2022-09-23T05:40:14.464Z,14
2022-09-23T05:41:57.875Z,13
2022-09-23T05:43:41.241Z,13
2022-09-23T05:45:24.636Z,14
2022-09-23T05:47:08.069Z,13
2022-09-23T05:50:34.508Z,14
2022-09-23T05:52:17.966Z,16
2022-09-23T05:54:01.318Z,17
2022-09-23T05:55:44.824Z,17
2022-09-23T05:57:28.220Z,17
2022-09-23T05:59:11.498Z,17
2022-09-23T06:00:54.896Z,16
2022-09-23T06:02:38.348Z,17
2022-09-23T06:06:04.798Z,18
2022-09-23T06:07:48.193Z,19
2022-09-23T06:09:31.549Z,20
2022-09-23T06:11:14.960Z,20
2022-09-23T06:12:58.365Z,20
2022-09-23T06:14:41.773Z,21
2022-09-23T06:16:25.205Z,21
2022-09-23T06:18:08.535Z,21
2022-09-23T06:23:17.863Z,181
2022-09-23T06:25:01.163Z,153
2022-09-23T06:26:44.588Z,180
2022-09-23T06:28:28.030Z,204
2022-09-23T06:30:11.358Z,223
2022-09-23T06:31:54.785Z,216
2022-09-23T06:33:38.161Z,226
2022-09-23T06:35:21.678Z,209
2022-09-23T06:40:30.788Z,286
2022-09-23T06:42:14.193Z,337
2022-09-23T06:45:40.973Z,359
2022-09-23T06:47:24.371Z,359
2022-09-23T06:49:07.775Z,397
2022-09-23T06:50:51.164Z,416
2022-09-23T06:52:34.554Z,423
2022-09-23T06:56:01.038Z,728
2022-09-23T06:57:44.425Z,744
2022-09-23T06:59:27.827Z,745
2022-09-23T07:01:11.219Z,778
2022-09-23T07:02:54.612Z,779
2022-09-23T07:04:38.013Z,778
2022-09-23T07:06:21.427Z,778
2022-09-23T07:08:04.823Z,777
2022-09-23T07:11:31.273Z,716
2022-09-23T07:13:14.667Z,735
2022-09-23T07:14:58.136Z,776
2022-09-23T07:16:41.499Z,690
2022-09-23T07:18:24.855Z,622
2022-09-23T07:20:08.273Z,682
2022-09-23T07:21:51.647Z,764
2022-09-23T07:23:35.040Z,689
2022-09-23T07:28:44.290Z,778
2022-09-23T07:30:27.695Z,778
2022-09-23T07:32:11.130Z,778
2022-09-23T07:33:54.560Z,778
2022-09-23T07:35:37.880Z,779
2022-09-23T07:37:21.281Z,778
2022-09-23T07:39:04.725Z,779
2022-09-23T07:40:48.054Z,772
2022-09-23T07:42:31.768Z,778
2022-09-23T07:44:15.157Z,778
2022-09-23T07:45:58.554Z,778
2022-09-23T07:47:41.956Z,778
2022-09-23T07:49:25.359Z,778
2022-09-23T07:51:08.751Z,779
2022-09-23T07:52:52.157Z,777
2022-09-23T07:54:35.547Z,778
2022-09-23T07:58:02.015Z,779
2022-09-23T07:59:45.402Z,778
2022-09-23T08:01:28.797Z,778
2022-09-23T08:03:12.210Z,778
2022-09-23T08:04:55.614Z,778
2022-09-23T08:06:38.994Z,777
2022-09-23T08:08:22.391Z,778
2022-09-23T08:10:05.784Z,777
2022-09-23T08:13:32.261Z,779
2022-09-23T08:15:15.655Z,779
2022-09-23T08:16:59.043Z,778
2022-09-23T08:18:42.453Z,778
2022-09-23T08:20:25.848Z,778
2022-09-23T08:22:09.235Z,779
2022-09-23T08:23:52.641Z,778
2022-09-23T08:25:36.013Z,777
2022-09-23T08:29:02.522Z,779
2022-09-23T08:30:45.961Z,779
2022-09-23T08:32:29.298Z,778
2022-09-23T08:34:12.699Z,779
2022-09-23T08:35:56.097Z,777
2022-09-23T08:37:39.507Z,778
2022-09-23T08:39:22.885Z,778
2022-09-23T08:41:06.276Z,779
2022-09-23T08:46:15.519Z,778
2022-09-23T08:47:58.905Z,778
2022-09-23T08:49:42.309Z,778
2022-09-23T08:51:25.708Z,778
2022-09-23T08:53:09.092Z,778
2022-09-23T08:54:52.489Z,778
2022-09-23T08:56:35.936Z,778
2022-09-23T08:58:19.290Z,778
2022-09-23T09:03:28.515Z,778
2022-09-23T09:05:11.928Z,779
2022-09-23T09:06:55.310Z,779
2022-09-23T09:08:38.721Z,779
2022-09-23T09:10:22.100Z,778
2022-09-23T09:12:05.504Z,779
2022-09-23T09:13:48.918Z,778
2022-09-23T09:15:32.304Z,779
2022-09-23T09:20:41.642Z,778
2022-09-23T09:22:24.944Z,778
2022-09-23T09:24:08.325Z,778
2022-09-23T09:25:51.853Z,779
2022-09-23T09:27:35.202Z,778
2022-09-23T09:29:18.525Z,778
2022-09-23T09:31:01.914Z,778
2022-09-23T09:32:45.354Z,778
2022-09-23T09:34:28.700Z,767
2022-09-23T09:36:12.424Z,779
2022-09-23T09:37:55.811Z,779
2022-09-23T09:39:39.190Z,779
2022-09-23T09:41:22.600Z,778
2022-09-23T09:43:05.996Z,779
2022-09-23T09:44:49.391Z,778
2022-09-23T09:46:32.791Z,777
2022-09-23T09:48:16.179Z,778
2022-09-23T09:53:25.411Z,778
2022-09-23T09:55:08.769Z,779
2022-09-23T09:56:52.163Z,779
2022-09-23T09:58:35.545Z,778
2022-09-23T10:00:18.945Z,778
2022-09-23T10:02:02.353Z,778
2022-09-23T10:03:45.738Z,779
2022-09-23T10:05:29.144Z,778
2022-09-23T10:08:55.604Z,779
2022-09-23T10:10:39.008Z,778
2022-09-23T10:12:22.399Z,778
2022-09-23T10:14:05.790Z,778
2022-09-23T10:15:49.185Z,778
2022-09-23T10:17:32.580Z,778
2022-09-23T10:19:15.983Z,779
2022-09-23T10:20:59.373Z,779
2022-09-23T10:24:25.847Z,778
2022-09-23T10:26:09.239Z,778
2022-09-23T10:27:52.680Z,779
2022-09-23T10:29:36.040Z,779
2022-09-23T10:31:19.434Z,778
2022-09-23T10:33:02.835Z,779
2022-09-23T10:34:46.227Z,778
2022-09-23T10:36:29.619Z,778
2022-09-23T10:39:56.100Z,779
2022-09-23T10:41:39.504Z,778
2022-09-23T10:43:22.895Z,779
2022-09-23T10:45:06.286Z,778
2022-09-23T10:46:49.685Z,778
2022-09-23T10:48:33.100Z,778
2022-09-23T10:50:16.478Z,779
2022-09-23T10:51:59.877Z,779
2022-09-23T10:55:26.354Z,779
2022-09-23T10:57:09.756Z,778
2022-09-23T10:58:53.132Z,779
2022-09-23T11:00:36.533Z,779
2022-09-23T11:02:19.950Z,779
2022-09-23T11:04:03.341Z,779
2022-09-23T11:05:46.742Z,779
2022-09-23T11:07:30.131Z,778
2022-09-23T11:10:56.602Z,778
2022-09-23T11:12:40.010Z,779
2022-09-23T11:14:23.406Z,779
2022-09-23T11:16:06.797Z,779
2022-09-23T11:17:50.201Z,778
2022-09-23T11:19:33.589Z,779
2022-09-23T11:21:16.981Z,779
2022-09-23T11:23:00.380Z,779
2022-09-23T11:26:26.847Z,778
2022-09-23T11:28:10.236Z,779
2022-09-23T11:29:53.650Z,779
2022-09-23T11:31:37.058Z,779
2022-09-23T11:33:20.447Z,779
2022-09-23T11:35:03.832Z,779
2022-09-23T11:36:47.236Z,779
2022-09-23T11:38:30.629Z,778
2022-09-23T11:41:57.090Z,779
2022-09-23T11:43:40.529Z,779
2022-09-23T11:45:23.905Z,780
2022-09-23T11:47:07.299Z,778
2022-09-23T11:48:50.678Z,779
2022-09-23T11:50:34.082Z,780
2022-09-23T11:52:17.487Z,778
2022-09-23T11:54:00.881Z,778
2022-09-23T11:55:44.770Z,779
2022-09-23T11:57:28.040Z,779
2022-09-23T11:59:11.365Z,779
2022-09-23T12:00:54.883Z,779
2022-09-23T12:02:38.159Z,779
2022-09-23T12:04:21.555Z,779
2022-09-23T12:06:04.993Z,779
2022-09-23T12:11:14.927Z,779
2022-09-23T12:12:58.216Z,779
2022-09-23T12:14:41.631Z,780
2022-09-23T12:16:25.100Z,779
2022-09-23T12:18:08.406Z,779
2022-09-23T12:19:51.873Z,779
2022-09-23T12:21:35.347Z,778
2022-09-23T12:23:18.748Z,779
2022-09-23T12:25:02.306Z,779
2022-09-23T12:26:45.846Z,779
2022-09-23T12:28:29.252Z,433
2022-09-23T12:30:12.485Z,779
2022-09-23T12:31:56.039Z,454
2022-09-23T12:33:39.429Z,715
2022-09-23T12:35:22.843Z,779
2022-09-23T12:37:06.241Z,778
2022-09-23T12:40:32.709Z,716
2022-09-23T12:42:16.038Z,778
2022-09-23T12:43:59.508Z,779
2022-09-23T12:45:42.865Z,587
2022-09-23T12:47:26.254Z,779
2022-09-23T12:49:09.681Z,780
2022-09-23T12:50:52.977Z,725
2022-09-23T12:52:36.488Z,467
2022-09-23T12:54:20.041Z,779
2022-09-23T12:56:03.416Z,778
2022-09-23T12:57:46.971Z,778
2022-09-23T12:59:30.377Z,779
2022-09-23T13:01:13.645Z,779
2022-09-23T13:04:40.553Z,779
2022-09-23T13:06:23.842Z,778
2022-09-23T13:09:50.275Z,779
2022-09-23T13:11:33.811Z,779
2022-09-23T13:13:17.209Z,779
2022-09-23T13:15:00.598Z,778
2022-09-23T13:16:44.003Z,779
2022-09-23T13:18:27.414Z,754
2022-09-23T13:20:10.754Z,779
2022-09-23T13:21:54.194Z,778
2022-09-23T13:25:20.677Z,779
2022-09-23T13:27:03.926Z,779
2022-09-23T13:28:47.405Z,779
2022-09-23T13:30:30.705Z,780
2022-09-23T13:32:14.199Z,778
2022-09-23T13:33:57.666Z,750
2022-09-23T13:35:41.039Z,779
2022-09-23T13:37:24.443Z,779
2022-09-23T13:40:50.953Z,778
2022-09-23T13:42:34.320Z,779
2022-09-23T13:44:17.696Z,779
2022-09-23T13:46:01.129Z,778
2022-09-23T13:47:44.469Z,779
2022-09-23T13:49:27.903Z,779
2022-09-23T13:51:11.299Z,779
2022-09-23T13:52:54.698Z,778
2022-09-23T13:56:21.164Z,778
2022-09-23T13:58:04.554Z,778
2022-09-23T13:59:47.938Z,779
2022-09-23T14:01:31.345Z,779
2022-09-23T14:03:14.781Z,779
2022-09-23T14:04:58.130Z,777
2022-09-23T14:06:41.383Z,717
2022-09-23T14:08:24.944Z,682
2022-09-23T14:10:08.283Z,742
2022-09-23T14:11:52.032Z,770
2022-09-23T14:13:35.442Z,779
2022-09-23T14:15:18.832Z,779
2022-09-23T14:17:02.228Z,779
2022-09-23T14:18:45.613Z,778
2022-09-23T14:20:28.991Z,778
2022-09-23T14:22:12.434Z,779
2022-09-23T14:23:55.672Z,779
2022-09-23T14:27:22.263Z,779
2022-09-23T14:29:05.675Z,778
2022-09-23T14:30:49.090Z,780
2022-09-23T14:32:32.463Z,779
2022-09-23T14:34:15.848Z,778
2022-09-23T14:35:59.277Z,778
2022-09-23T14:37:42.672Z,778
2022-09-23T14:39:26.105Z,779
2022-09-23T14:42:52.498Z,779
2022-09-23T14:44:35.905Z,779
2022-09-23T14:46:19.348Z,779
2022-09-23T14:48:02.690Z,779
2022-09-23T14:49:46.165Z,778
2022-09-23T14:51:29.499Z,778
2022-09-23T14:53:12.910Z,779
2022-09-23T14:54:56.152Z,779
2022-09-23T14:58:22.746Z,778
2022-09-23T15:00:06.113Z,743
2022-09-23T15:01:49.434Z,685
2022-09-23T15:03:32.961Z,778
2022-09-23T15:05:16.392Z,779
2022-09-23T15:06:59.751Z,779
2022-09-23T15:08:43.139Z,779
2022-09-23T15:10:26.403Z,779
2022-09-23T15:13:52.922Z,779
2022-09-23T15:15:36.435Z,778
2022-09-23T15:17:19.816Z,778
2022-09-23T15:19:03.208Z,778
2022-09-23T15:20:46.619Z,779
2022-09-23T15:22:30.011Z,778
2022-09-23T15:24:13.343Z,779
2022-09-23T15:25:56.799Z,778
2022-09-23T15:29:23.262Z,779
2022-09-23T15:31:06.529Z,730
2022-09-23T15:32:50.060Z,699
2022-09-23T15:34:33.455Z,671
2022-09-23T15:36:16.863Z,655
2022-09-23T15:38:00.236Z,628
2022-09-23T15:39:43.683Z,561
2022-09-23T15:41:26.999Z,526
2022-09-23T15:46:36.150Z,446
2022-09-23T15:48:19.703Z,434
2022-09-23T15:50:03.082Z,415
2022-09-23T15:51:46.468Z,417
2022-09-23T15:53:29.884Z,417
2022-09-23T15:55:13.132Z,397
2022-09-23T15:56:56.643Z,384
2022-09-23T15:58:40.002Z,379
2022-09-23T16:02:06.412Z,353
2022-09-23T16:03:50.059Z,279
2022-09-23T16:05:33.217Z,306
2022-09-23T16:07:16.583Z,310
2022-09-23T16:09:00.104Z,287
2022-09-23T16:10:43.472Z,289
2022-09-23T16:12:26.774Z,279
2022-09-23T16:14:10.214Z,270
2022-09-23T16:17:36.653Z,251
2022-09-23T16:19:20.096Z,241
2022-09-23T16:21:03.428Z,232
2022-09-23T16:22:46.836Z,225
2022-09-23T16:24:30.236Z,218
2022-09-23T16:26:13.624Z,210
2022-09-23T16:27:57.031Z,204
2022-09-23T16:29:40.522Z,196
2022-09-23T16:33:06.928Z,183
2022-09-23T16:34:50.285Z,174
2022-09-23T16:36:33.798Z,166
2022-09-23T16:38:17.073Z,156
2022-09-23T16:40:00.589Z,148
2022-09-23T16:41:43.885Z,140
2022-09-23T16:43:27.274Z,130
2022-09-23T16:45:10.691Z,121
2022-09-23T16:50:19.929Z,92
2022-09-23T16:52:03.303Z,82
2022-09-23T16:53:46.770Z,73
2022-09-23T16:55:30.113Z,65
2022-09-23T16:57:17.621Z,56
2022-09-23T16:58:56.895Z,49
2022-09-23T17:00:40.393Z,41
2022-09-23T17:02:23.771Z,34
2022-09-23T17:07:33.025Z,20
2022-09-23T17:09:16.399Z,16
2022-09-23T17:10:59.785Z,13
2022-09-23T17:12:43.161Z,13
2022-09-23T17:14:26.606Z,16
2022-09-23T17:16:09.976Z,14
2022-09-23T17:17:53.306Z,11
2022-09-23T17:19:36.811Z,11
2022-09-23T17:24:45.978Z,10
2022-09-23T17:26:29.344Z,11
2022-09-23T17:28:12.727Z,19
2022-09-23T17:29:56.145Z,11
2022-09-23T17:31:39.611Z,11
2022-09-23T17:33:22.958Z,10
2022-09-23T17:35:06.387Z,9
2022-09-23T17:36:49.736Z,9
2022-09-23T17:40:16.189Z,7
2022-09-23T17:41:59.644Z,8
2022-09-23T17:43:43.047Z,7
2022-09-23T17:45:26.373Z,10
2022-09-23T17:47:09.771Z,8
2022-09-23T17:48:53.211Z,8
2022-09-23T17:50:36.575Z,9
2022-09-23T17:52:20.006Z,8
2022-09-23T17:55:46.429Z,9
2022-09-23T17:57:29.838Z,9
2022-09-23T17:59:13.254Z,9
2022-09-23T18:00:56.623Z,9
2022-09-23T18:02:40.021Z,9
2022-09-23T18:04:23.442Z,9
2022-09-23T18:06:06.811Z,9
2022-09-23T18:07:50.220Z,8
2022-09-23T18:11:16.682Z,9
2022-09-23T18:13:00.076Z,9
2022-09-23T18:14:43.520Z,9
2022-09-23T18:16:26.869Z,9
2022-09-23T18:18:10.290Z,9
2022-09-23T18:19:53.674Z,9
2022-09-23T18:21:37.059Z,9
2022-09-23T18:23:20.526Z,9
2022-09-23T18:28:29.709Z,9
2022-09-23T18:30:13.139Z,8
2022-09-23T18:31:56.495Z,9
2022-09-23T18:33:39.873Z,8
2022-09-23T18:35:23.274Z,8
2022-09-23T18:37:06.788Z,10
2022-09-23T18:38:50.109Z,9
2022-09-23T18:40:33.453Z,8
2022-09-23T18:43:59.949Z,9
2022-09-23T18:45:43.360Z,9
2022-09-23T18:47:26.738Z,8
2022-09-23T18:49:10.139Z,9
2022-09-23T18:50:53.512Z,8
2022-09-23T18:52:36.918Z,9
2022-09-23T18:54:20.312Z,9
2022-09-23T18:56:03.727Z,9
2022-09-23T18:59:30.191Z,9
2022-09-23T19:01:13.577Z,9
2022-09-23T19:02:56.985Z,9
2022-09-23T19:04:40.424Z,9
2022-09-23T19:06:23.775Z,9
2022-09-23T19:08:07.269Z,9
2022-09-23T19:09:50.566Z,8
2022-09-23T19:11:33.952Z,9
2022-09-23T19:13:17.437Z,9
2022-09-23T19:15:01.058Z,9
2022-09-23T19:16:44.480Z,8
2022-09-23T19:18:27.847Z,9
2022-09-23T19:20:11.260Z,8
2022-09-23T19:21:54.639Z,8
2022-09-23T19:23:38.031Z,8
2022-09-23T19:25:21.436Z,8
2022-09-23T19:27:04.855Z,8
2022-09-23T19:28:48.206Z,9
2022-09-23T19:30:31.951Z,8
2022-09-23T19:32:15.311Z,9
2022-09-23T19:33:58.719Z,7
2022-09-23T19:35:42.125Z,8
2022-09-23T19:37:25.529Z,8
2022-09-23T19:39:08.916Z,8
2022-09-23T19:40:52.310Z,9
2022-09-23T19:42:35.682Z,9
2022-09-23T19:44:19.110Z,9
2022-09-23T19:46:02.792Z,9
2022-09-23T19:47:46.209Z,8
2022-09-23T19:49:29.594Z,8
2022-09-23T19:51:12.978Z,9
2022-09-23T19:52:56.377Z,8
2022-09-23T19:54:39.790Z,9
2022-09-23T19:56:23.179Z,8
2022-09-23T19:58:06.590Z,8
2022-09-23T19:59:49.964Z,10
2022-09-23T20:03:16.437Z,9
2022-09-23T20:04:59.844Z,9
2022-09-23T20:06:43.233Z,9
2022-09-23T20:08:26.619Z,9
2022-09-23T20:10:10.079Z,9
2022-09-23T20:11:53.404Z,8
2022-09-23T20:13:36.873Z,9
2022-09-23T20:15:20.207Z,9
2022-09-23T20:20:29.504Z,8
2022-09-23T20:22:12.857Z,8
2022-09-23T20:23:56.258Z,9
2022-09-23T20:25:39.701Z,8
2022-09-23T20:27:23.107Z,9
2022-09-23T20:29:06.433Z,8
2022-09-23T20:30:49.838Z,9
2022-09-23T20:32:33.254Z,9
2022-09-23T20:34:16.629Z,8
2022-09-23T20:37:43.167Z,8
2022-09-23T20:39:26.499Z,8
2022-09-23T20:41:09.906Z,9
2022-09-23T20:42:53.365Z,9
2022-09-23T20:44:36.695Z,8
2022-09-23T20:46:20.070Z,8
2022-09-23T20:48:03.463Z,5
2022-09-23T20:49:46.943Z,6
2022-09-23T20:54:56.106Z,9
2022-09-23T20:56:39.562Z,8
2022-09-23T20:58:22.933Z,8
2022-09-23T21:00:06.325Z,8
2022-09-23T21:01:49.678Z,8
2022-09-23T21:03:33.078Z,8
2022-09-23T21:05:16.491Z,9
2022-09-23T21:06:59.875Z,8
2022-09-23T21:10:26.391Z,8
2022-09-23T21:12:09.747Z,9
2022-09-23T21:13:53.181Z,9
2022-09-23T21:15:36.555Z,8
2022-09-23T21:17:19.942Z,9
2022-09-23T21:19:03.333Z,9
2022-09-23T21:20:46.736Z,8
2022-09-23T21:22:30.132Z,8
2022-09-23T21:25:56.592Z,8
2022-09-23T21:27:40.003Z,9
2022-09-23T21:29:23.435Z,8
2022-09-23T21:31:06.786Z,8
2022-09-23T21:32:50.209Z,9
2022-09-23T21:34:33.688Z,9
2022-09-23T21:36:16.971Z,8
2022-09-23T21:38:00.376Z,8
2022-09-23T21:43:09.623Z,8
2022-09-23T21:44:52.999Z,9
2022-09-23T21:46:36.407Z,8
2022-09-23T21:48:19.807Z,9
2022-09-23T21:50:03.182Z,8
2022-09-23T21:51:46.622Z,8
2022-09-23T21:53:30.080Z,8
2022-09-23T21:55:13.386Z,8
2022-09-23T21:58:39.852Z,9
2022-09-23T22:00:23.258Z,8
2022-09-23T22:02:06.641Z,8
2022-09-23T22:03:50.025Z,9
2022-09-23T22:05:33.435Z,8
2022-09-23T22:07:16.854Z,8
2022-09-23T22:09:00.222Z,7
2022-09-23T22:10:43.644Z,2
2022-09-23T22:15:52.874Z,2
2022-09-23T22:17:36.253Z,2
2022-09-23T22:19:19.685Z,2
2022-09-23T22:21:03.049Z,2
2022-09-23T22:22:46.461Z,2
2022-09-23T22:24:29.871Z,2
2022-09-23T22:26:13.270Z,3
2022-09-23T22:27:56.637Z,2
2022-09-23T22:31:23.113Z,2
2022-09-23T22:33:06.506Z,2
2022-09-23T22:34:49.928Z,2
2022-09-23T22:36:33.329Z,2
2022-09-23T22:38:16.686Z,2
2022-09-23T22:40:00.121Z,2
2022-09-23T22:41:43.480Z,2
2022-09-23T22:43:26.877Z,2
2022-09-23T22:48:36.153Z,2
2022-09-23T22:50:19.556Z,2
2022-09-23T22:52:02.914Z,2
2022-09-23T22:53:46.321Z,2
2022-09-23T22:55:29.696Z,2
2022-09-23T22:57:13.107Z,1
2022-09-23T22:58:56.496Z,2
2022-09-23T23:00:39.906Z,2
2022-09-23T23:04:06.375Z,2
2022-09-23T23:05:49.761Z,1
2022-09-23T23:07:33.163Z,2
2022-09-23T23:09:16.566Z,2
2022-09-23T23:10:59.951Z,2
2022-09-23T23:12:43.344Z,2
2022-09-23T23:14:26.780Z,2
2022-09-23T23:16:10.134Z,2
2022-09-23T23:19:36.621Z,2
2022-09-23T23:21:20.000Z,1
2022-09-23T23:23:03.488Z,2
2022-09-23T23:24:46.829Z,1
2022-09-23T23:26:30.244Z,1
2022-09-23T23:28:13.627Z,2
2022-09-23T23:29:56.992Z,2
2022-09-23T23:31:40.487Z,1
2022-09-23T23:33:24.133Z,2
2022-09-23T23:35:07.524Z,2
2022-09-23T23:36:50.879Z,2
2022-09-23T23:38:34.276Z,1
2022-09-23T23:40:17.682Z,2
2022-09-23T23:42:01.080Z,2
2022-09-23T23:43:44.464Z,2
2022-09-23T23:45:27.855Z,2
2022-09-23T23:48:54.345Z,1
2022-09-23T23:50:37.715Z,1
2022-09-23T23:52:21.135Z,2
2022-09-23T23:54:04.515Z,1
2022-09-23T23:55:47.928Z,2
2022-09-23T23:57:31.376Z,2
2022-09-23T23:59:14.701Z,1
